Time;durP1;ratioP1;P1;durP2;ratioP2;P2;SDS_P1;SDS_P2;PMS_P1;PMS_P2;Temp;Humidity;BMP_temperature;BMP_pressure;BME280_temperature;BME280_humidity;BME280_pressure;Samples;Min_cycle;Max_cycle;Signal;HPM_P1;HPM_P2
2022/11/17 00:01:20;;;;;;;;;;;;;;;;;;7368103;19;1334;-60
2022/11/17 00:03:48;;;;;;;;;;;;;;;;;;7369503;19;793;-64
2022/11/17 00:06:16;;;;;;;;;;;;;;;;;;7371549;19;1729;-62
2022/11/17 00:08:44;;;;;;;;;;;;;;;;;;7367376;19;1846;-63
2022/11/17 00:11:12;;;;;;;;;;;;;;;;;;7369513;19;783;-64
2022/11/17 00:16:21;;;;;;;;;;;;;;;;;;7369773;19;818;-64
2022/11/17 00:21:30;;;;;;;;;;;;;;;;;;7368409;19;1260;-63
2022/11/17 00:23:58;;;;;;;;;;;;;;;;;;7368888;19;913;-64
2022/11/17 00:26:26;;;;;;;;;;;;;;;;;;7369493;19;811;-64
2022/11/17 00:28:55;;;;;;;;;;;;;;;;;;7367384;19;1838;-62
2022/11/17 00:34:06;;;;;;;;;;;;;;;;;;7369098;19;809;-65
2022/11/17 00:36:34;;;;;;;;;;;;;;;;;;7371568;19;1882;-64
2022/11/17 00:39:02;;;;;;;;;;;;;;;;;;7364224;19;882;-63
2022/11/17 00:41:31;;;;;;;;;;;;;;;;;;7368393;19;1357;-64
2022/11/17 00:43:59;;;;;;;;;;;;;;;;;;7369477;19;1082;-65
2022/11/17 00:46:27;;;;;;;;;;;;;;;;;;7369609;19;845;-63
2022/11/17 00:48:55;;;;;;;;;;;;;;;;;;7370387;19;1841;-64
2022/11/17 00:51:24;;;;;;;;;;;;;;;;;;7375657;19;1365;-63
2022/11/17 00:53:52;;;;;;;;;;;;;;;;;;7372742;19;826;-65
2022/11/17 00:56:21;;;;;;;;;;;;;;;;;;7371499;19;834;-65
2022/11/17 00:58:49;;;;;;;;;;;;;;;;;;7366967;19;1805;-65
2022/11/17 01:01:17;;;;;;;;;;;;;;;;;;7366758;19;1452;-63
2022/11/17 01:03:45;;;;;;;;;;;;;;;;;;7367773;19;2094;-65
2022/11/17 01:06:13;;;;;;;;;;;;;;;;;;7368668;19;1899;-64
2022/11/17 01:08:41;;;;;;;;;;;;;;;;;;7363664;19;1861;-64
2022/11/17 01:11:09;;;;;;;;;;;;;;;;;;7366548;19;897;-65
2022/11/17 01:13:37;;;;;;;;;;;;;;;;;;7363044;19;1348;-65
2022/11/17 01:16:06;;;;;;;;;;;;;;;;;;7366345;19;808;-64
2022/11/17 01:18:34;;;;;;;;;;;;;;;;;;7365085;19;787;-64
2022/11/17 01:21:02;;;;;;;;;;;;;;;;;;7366039;19;729;-62
2022/11/17 01:23:30;;;;;;;;;;;;;;;;;;7363709;19;2078;-63
2022/11/17 01:25:58;;;;;;;;;;;;;;;;;;7366476;19;867;-63
2022/11/17 01:28:26;;;;;;;;;;;;;;;;;;7364290;19;1853;-64
2022/11/17 01:30:54;;;;;;;;;;;;;;;;;;7365558;19;788;-62
2022/11/17 01:33:22;;;;;;;;;;;;;;;;;;7363265;19;1301;-64
2022/11/17 01:35:50;;;;;;;;;;;;;;;;;;7365037;19;842;-64
2022/11/17 01:38:19;;;;;;;;;;;;;;;;;;7365062;19;810;-64
2022/11/17 01:40:47;;;;;;;;;;;;;;;;;;7365802;19;788;-63
2022/11/17 01:43:15;;;;;;;;;;;;;;;;;;7363293;19;1282;-62
2022/11/17 01:45:43;;;;;;;;;;;;;;;;;;7365965;19;825;-64
2022/11/17 01:48:11;;;;;;;;;;;;;;;;;;7364192;19;1853;-64
2022/11/17 01:50:39;;;;;;;;;;;;;;;;;;7364329;19;888;-65
2022/11/17 01:53:07;;;;;;;;;;;;;;;;;;7362701;19;1855;-65
2022/11/17 01:55:35;;;;;;;;;;;;;;;;;;7365146;19;806;-61
2022/11/17 01:58:04;;;;;;;;;;;;;;;;;;7364377;19;863;-65
2022/11/17 02:00:32;;;;;;;;;;;;;;;;;;7363796;19;870;-64
2022/11/17 02:03:00;;;;;;;;;;;;;;;;;;7362833;19;1337;-64
2022/11/17 02:05:28;;;;;;;;;;;;;;;;;;7365221;19;823;-65
2022/11/17 02:07:56;;;;;;;;;;;;;;;;;;7363550;19;1846;-62
2022/11/17 02:10:24;;;;;;;;;;;;;;;;;;7364474;19;811;-63
2022/11/17 02:12:53;;;;;;;;;;;;;;;;;;7364858;19;1865;-66
2022/11/17 02:15:21;;;;;;;;;;;;;;;;;;7364070;19;803;-65
2022/11/17 02:17:49;;;;;;;;;;;;;;;;;;7364120;19;799;-65
2022/11/17 02:20:17;;;;;;;;;;;;;;;;;;7364937;19;878;-64
2022/11/17 02:22:46;;;;;;;;;;;;;;;;;;7363069;19;1330;-61
2022/11/17 02:25:14;;;;;;;;;;;;;;;;;;7363558;19;871;-65
2022/11/17 02:27:42;;;;;;;;;;;;;;;;;;7364584;19;816;-65
2022/11/17 02:30:10;;;;;;;;;;;;;;;;;;7361452;19;1841;-65
2022/11/17 02:32:38;;;;;;;;;;;;;;;;;;7362638;19;1318;-65
2022/11/17 02:35:06;;;;;;;;;;;;;;;;;;7363792;19;800;-65
2022/11/17 02:37:34;;;;;;;;;;;;;;;;;;7363562;19;811;-66
2022/11/17 02:40:02;;;;;;;;;;;;;;;;;;7364501;19;855;-65
2022/11/17 02:45:11;;;;;;;;;;;;;;;;;;7363764;19;1107;-65
2022/11/17 02:47:39;;;;;;;;;;;;;;;;;;7363259;19;848;-66
2022/11/17 02:50:07;;;;;;;;;;;;;;;;;;7361377;19;1856;-65
2022/11/17 02:52:35;;;;;;;;;;;;;;;;;;7362178;19;1329;-66
2022/11/17 02:55:04;;;;;;;;;;;;;;;;;;7366073;19;2015;-66
2022/11/17 02:57:32;;;;;;;;;;;;;;;;;;7363715;19;799;-66
2022/11/17 03:00:00;;;;;;;;;;;;;;;;;;7363601;19;888;-66
2022/11/17 03:02:28;;;;;;;;;;;;;;;;;;7370683;19;1871;-65
2022/11/17 03:04:56;;;;;;;;;;;;;;;;;;7370058;19;794;-64
2022/11/17 03:07:24;;;;;;;;;;;;;;;;;;7370493;19;763;-65
2022/11/17 03:09:53;;;;;;;;;;;;;;;;;;7367205;19;1844;-65
2022/11/17 03:12:23;;;;;;;;;;;;;;;;;;7370085;19;2050;-64
2022/11/17 03:14:52;;;;;;;;;;;;;;;;;;7370183;19;854;-65
2022/11/17 03:17:20;;;;;;;;;;;;;;;;;;7369369;19;852;-63
2022/11/17 03:19:48;;;;;;;;;;;;;;;;;;7368474;19;871;-64
2022/11/17 03:22:16;;;;;;;;;;;;;;;;;;7368389;19;1220;-64
2022/11/17 03:24:44;;;;;;;;;;;;;;;;;;7369849;19;840;-64
2022/11/17 03:27:12;;;;;;;;;;;;;;;;;;7370173;19;862;-64
2022/11/17 03:29:40;;;;;;;;;;;;;;;;;;7367129;19;1842;-65
2022/11/17 03:32:08;;;;;;;;;;;;;;;;;;7370551;19;2132;-63
2022/11/17 03:34:36;;;;;;;;;;;;;;;;;;7369211;19;807;-65
2022/11/17 03:37:05;;;;;;;;;;;;;;;;;;7370171;19;826;-66
2022/11/17 03:39:33;;;;;;;;;;;;;;;;;;7368604;19;808;-64
2022/11/17 03:42:01;;;;;;;;;;;;;;;;;;7368844;19;1336;-64
2022/11/17 03:44:29;;;;;;;;;;;;;;;;;;7369028;19;904;-64
2022/11/17 03:46:57;;;;;;;;;;;;;;;;;;7369316;19;815;-65
2022/11/17 03:49:25;;;;;;;;;;;;;;;;;;7367563;19;1842;-64
2022/11/17 03:51:53;;;;;;;;;;;;;;;;;;7372585;19;1888;-61
2022/11/17 03:54:21;;;;;;;;;;;;;;;;;;7369250;19;851;-64
2022/11/17 03:56:49;;;;;;;;;;;;;;;;;;7369633;19;858;-65
2022/11/17 03:59:18;;;;;;;;;;;;;;;;;;7368732;19;881;-64
2022/11/17 04:01:46;;;;;;;;;;;;;;;;;;7368118;19;1333;-63
2022/11/17 04:04:14;;;;;;;;;;;;;;;;;;7369350;19;876;-64
2022/11/17 04:06:42;;;;;;;;;;;;;;;;;;7369123;19;858;-64
2022/11/17 04:09:10;;;;;;;;;;;;;;;;;;7368890;19;1856;-64
2022/11/17 04:16:59;;;;;;;;;;;;;;;;;;7368928;19;843;-64
2022/11/17 04:19:28;;;;;;;;;;;;;;;;;;7367943;19;870;-60
2022/11/17 04:21:56;;;;;;;;;;;;;;;;;;7371578;19;1920;-65
2022/11/17 04:24:24;;;;;;;;;;;;;;;;;;7368216;19;859;-65
2022/11/17 04:29:32;;;;;;;;;;;;;;;;;;7366200;19;1837;-65
2022/11/17 04:32:01;;;;;;;;;;;;;;;;;;7367197;19;1333;-65
2022/11/17 04:34:29;;;;;;;;;;;;;;;;;;7368090;19;870;-65
2022/11/17 04:36:57;;;;;;;;;;;;;;;;;;7367816;19;896;-65
2022/11/17 04:39:25;;;;;;;;;;;;;;;;;;7367125;19;878;-64
2022/11/17 04:41:55;;;;;;;;;;;;;;;;;;7367392;19;1268;-64
2022/11/17 04:44:23;;;;;;;;;;;;;;;;;;7369414;19;2185;-64
2022/11/17 04:46:52;;;;;;;;;;;;;;;;;;7368495;19;808;-64
2022/11/17 04:49:20;;;;;;;;;;;;;;;;;;7367316;19;1849;-65
2022/11/17 04:51:48;;;;;;;;;;;;;;;;;;7367096;19;1361;-64
2022/11/17 04:54:16;;;;;;;;;;;;;;;;;;7367937;19;807;-64
2022/11/17 04:56:44;;;;;;;;;;;;;;;;;;7367887;19;871;-64
2022/11/17 04:59:12;;;;;;;;;;;;;;;;;;7367660;19;847;-65
2022/11/17 05:01:40;;;;;;;;;;;;;;;;;;7366883;19;1286;-63
2022/11/17 05:04:08;;;;;;;;;;;;;;;;;;7367485;19;872;-65
2022/11/17 05:06:37;;;;;;;;;;;;;;;;;;7368790;19;757;-63
2022/11/17 05:09:05;;;;;;;;;;;;;;;;;;7369061;19;1841;-65
2022/11/17 05:14:13;;;;;;;;;;;;;;;;;;7369069;19;1832;-65
2022/11/17 05:19:22;;;;;;;;;;;;;;;;;;7367980;19;855;-65
2022/11/17 05:21:50;;;;;;;;;;;;;;;;;;7366219;19;1377;-65
2022/11/17 05:24:16;;;;;;;;;;;;;;;;;;7365794;19;887;-64
2022/11/17 05:26:44;;;;;;;;;;;;;;;;;;7368031;19;784;-64
2022/11/17 05:29:12;;;;;;;;;;;;;;;;;;7366179;19;1844;-64
2022/11/17 05:31:40;;;;;;;;;;;;;;;;;;7366689;19;1267;-65
2022/11/17 05:34:08;;;;;;;;;;;;;;;;;;7369994;19;881;-64
2022/11/17 05:36:37;;;;;;;;;;;;;;;;;;7368615;19;812;-64
2022/11/17 05:39:05;;;;;;;;;;;;;;;;;;7367845;19;866;-64
2022/11/17 05:41:33;;;;;;;;;;;;;;;;;;7370166;19;1282;-64
2022/11/17 05:44:01;;;;;;;;;;;;;;;;;;7371522;19;1557;-61
2022/11/17 05:46:29;;;;;;;;;;;;;;;;;;7367595;19;802;-63
2022/11/17 05:48:57;;;;;;;;;;;;;;;;;;7365614;19;1838;-63
2022/11/17 05:51:25;;;;;;;;;;;;;;;;;;7367225;19;1691;-63
2022/11/17 05:53:54;;;;;;;;;;;;;;;;;;7369067;19;2027;-63
2022/11/17 05:56:22;;;;;;;;;;;;;;;;;;7364590;19;849;-63
2022/11/17 05:58:50;;;;;;;;;;;;;;;;;;7364193;19;787;-63
2022/11/17 06:01:18;;;;;;;;;;;;;;;;;;7365658;19;1333;-63
2022/11/17 06:03:46;;;;;;;;;;;;;;;;;;7364516;19;875;-63
2022/11/17 06:06:14;;;;;;;;;;;;;;;;;;7365436;19;806;-61
2022/11/17 06:08:42;;;;;;;;;;;;;;;;;;7364476;19;859;-62
2022/11/17 06:11:11;;;;;;;;;;;;;;;;;;7362455;19;1844;-61
2022/11/17 06:13:39;;;;;;;;;;;;;;;;;;7364508;19;1818;-62
2022/11/17 06:16:08;;;;;;;;;;;;;;;;;;7364831;19;796;-62
2022/11/17 06:18:36;;;;;;;;;;;;;;;;;;7364282;19;808;-61
2022/11/17 06:21:04;;;;;;;;;;;;;;;;;;7364672;19;885;-61
2022/11/17 06:23:32;;;;;;;;;;;;;;;;;;7362417;19;1252;-63
2022/11/17 06:26:00;;;;;;;;;;;;;;;;;;7364896;19;747;-60
2022/11/17 06:28:28;;;;;;;;;;;;;;;;;;7364126;19;791;-63
2022/11/17 06:30:56;;;;;;;;;;;;;;;;;;7362704;19;1809;-61
2022/11/17 06:33:25;;;;;;;;;;;;;;;;;;7363347;19;1310;-60
2022/11/17 06:35:53;;;;;;;;;;;;;;;;;;7365810;19;905;-63
2022/11/17 06:38:21;;;;;;;;;;;;;;;;;;7369004;19;842;-61
2022/11/17 06:40:50;;;;;;;;;;;;;;;;;;7371111;19;1815;-62
2022/11/17 06:43:18;;;;;;;;;;;;;;;;;;7369179;19;1262;-61
2022/11/17 06:45:46;;;;;;;;;;;;;;;;;;7370201;19;829;-61
2022/11/17 06:48:15;;;;;;;;;;;;;;;;;;7369826;19;893;-62
2022/11/17 06:50:43;;;;;;;;;;;;;;;;;;7368571;19;1857;-61
2022/11/17 06:53:11;;;;;;;;;;;;;;;;;;7366688;19;1188;-61
2022/11/17 06:55:40;;;;;;;;;;;;;;;;;;7368991;19;803;-62
2022/11/17 06:58:10;;;;;;;;;;;;;;;;;;7369813;19;950;-61
2022/11/17 07:00:38;;;;;;;;;;;;;;;;;;7369087;19;1592;-61
2022/11/17 07:03:06;;;;;;;;;;;;;;;;;;7372956;19;1798;-62
2022/11/17 07:05:34;;;;;;;;;;;;;;;;;;7368849;19;796;-61
2022/11/17 07:08:02;;;;;;;;;;;;;;;;;;7369437;19;839;-62
2022/11/17 07:10:31;;;;;;;;;;;;;;;;;;7369486;19;1838;-60
2022/11/17 07:12:59;;;;;;;;;;;;;;;;;;7372278;19;1991;-59
2022/11/17 07:15:27;;;;;;;;;;;;;;;;;;7369170;19;866;-61
2022/11/17 07:17:55;;;;;;;;;;;;;;;;;;7369190;19;776;-62
2022/11/17 07:20:23;;;;;;;;;;;;;;;;;;7369641;19;870;-61
2022/11/17 07:22:51;;;;;;;;;;;;;;;;;;7368910;19;1315;-59
2022/11/17 07:25:19;;;;;;;;;;;;;;;;;;7370483;19;1571;-61
2022/11/17 07:27:48;;;;;;;;;;;;;;;;;;7369596;19;936;-60
2022/11/17 07:30:16;;;;;;;;;;;;;;;;;;7369339;19;1842;-60
2022/11/17 07:32:44;;;;;;;;;;;;;;;;;;7370696;19;1823;-61
2022/11/17 07:35:12;;;;;;;;;;;;;;;;;;7369738;19;1019;-60
2022/11/17 07:37:40;;;;;;;;;;;;;;;;;;7369909;19;744;-63
2022/11/17 07:40:08;;;;;;;;;;;;;;;;;;7369005;19;1999;-61
2022/11/17 07:42:36;;;;;;;;;;;;;;;;;;7367466;19;1295;-59
2022/11/17 07:45:08;;;;;;;;;;;;;;;;;;7368787;19;744;-61
2022/11/17 07:47:36;;;;;;;;;;;;;;;;;;7369172;19;839;-61
2022/11/17 07:50:04;;;;;;;;;;;;;;;;;;7369266;19;1845;-62
2022/11/17 07:52:32;;;;;;;;;;;;;;;;;;7366649;19;1279;-61
2022/11/17 07:55:01;;;;;;;;;;;;;;;;;;7369743;19;842;-61
2022/11/17 07:57:30;;;;;;;;;;;;;;;;;;7369972;19;792;-60
2022/11/17 07:59:58;;;;;;;;;;;;;;;;;;7369203;19;870;-61
2022/11/17 08:02:27;;;;;;;;;;;;;;;;;;7372081;19;1950;-61
2022/11/17 08:04:55;;;;;;;;;;;;;;;;;;7369588;19;924;-60
2022/11/17 08:07:23;;;;;;;;;;;;;;;;;;7369338;19;865;-61
2022/11/17 08:09:51;;;;;;;;;;;;;;;;;;7372495;19;1852;-62
2022/11/17 08:12:19;;;;;;;;;;;;;;;;;;7373175;19;2169;-61
2022/11/17 08:14:47;;;;;;;;;;;;;;;;;;7368854;19;802;-61
2022/11/17 08:17:16;;;;;;;;;;;;;;;;;;7369276;19;888;-61
2022/11/17 08:19:44;;;;;;;;;;;;;;;;;;7369009;19;818;-60
2022/11/17 08:22:12;;;;;;;;;;;;;;;;;;7368346;19;1255;-61
2022/11/17 08:24:40;;;;;;;;;;;;;;;;;;7368795;19;936;-61
2022/11/17 08:27:09;;;;;;;;;;;;;;;;;;7368778;19;964;-61
2022/11/17 08:29:37;;;;;;;;;;;;;;;;;;7367663;19;1806;-60
2022/11/17 08:32:05;;;;;;;;;;;;;;;;;;7368308;19;1267;-59
2022/11/17 08:34:33;;;;;;;;;;;;;;;;;;7368813;19;811;-63
2022/11/17 08:37:01;;;;;;;;;;;;;;;;;;7367951;19;835;-62
2022/11/17 08:39:30;;;;;;;;;;;;;;;;;;7368681;19;827;-62
2022/11/17 08:41:58;;;;;;;;;;;;;;;;;;7371433;19;2216;-63
2022/11/17 08:44:26;;;;;;;;;;;;;;;;;;7369128;19;877;-62
2022/11/17 08:46:54;;;;;;;;;;;;;;;;;;7368231;19;840;-62
2022/11/17 08:49:22;;;;;;;;;;;;;;;;;;7367339;19;1064;-62
2022/11/17 08:51:50;;;;;;;;;;;;;;;;;;7369493;19;1849;-61
2022/11/17 08:54:18;;;;;;;;;;;;;;;;;;7372001;19;932;-61
2022/11/17 08:56:47;;;;;;;;;;;;;;;;;;7372588;19;1351;-63
2022/11/17 08:59:15;;;;;;;;;;;;;;;;;;7371205;19;1226;-61
2022/11/17 09:01:43;;;;;;;;;;;;;;;;;;7370390;19;1822;-62
2022/11/17 09:04:11;;;;;;;;;;;;;;;;;;7366442;19;851;-61
2022/11/17 09:06:39;;;;;;;;;;;;;;;;;;7366339;19;827;-62
2022/11/17 09:09:07;;;;;;;;;;;;;;;;;;7365603;19;1818;-62
2022/11/17 09:11:36;;;;;;;;;;;;;;;;;;7366222;19;1846;-62
2022/11/17 09:14:04;;;;;;;;;;;;;;;;;;7366116;19;792;-62
2022/11/17 09:16:32;;;;;;;;;;;;;;;;;;7366645;19;890;-62
2022/11/17 09:19:01;;;;;;;;;;;;;;;;;;7364667;19;846;-62
2022/11/17 09:21:29;;;;;;;;;;;;;;;;;;7365764;19;1220;-61
2022/11/17 09:23:57;;;;;;;;;;;;;;;;;;7366256;19;870;-62
2022/11/17 09:26:25;;;;;;;;;;;;;;;;;;7365870;19;803;-61
2022/11/17 09:28:54;;;;;;;;;;;;;;;;;;7364995;19;870;-59
2022/11/17 09:31:22;;;;;;;;;;;;;;;;;;7363390;19;1866;-61
2022/11/17 09:33:50;;;;;;;;;;;;;;;;;;7366143;19;967;-60
2022/11/17 09:36:18;;;;;;;;;;;;;;;;;;7365949;19;1870;-63
2022/11/17 09:38:46;;;;;;;;;;;;;;;;;;7369849;19;1346;-62
2022/11/17 09:41:15;;;;;;;;;;;;;;;;;;7365654;19;824;-62
2022/11/17 09:43:43;;;;;;;;;;;;;;;;;;7365804;19;763;-64
2022/11/17 09:46:11;;;;;;;;;;;;;;;;;;7365065;19;819;-63
2022/11/17 09:48:39;;;;;;;;;;;;;;;;;;7365016;19;803;-62
2022/11/17 09:51:07;;;;;;;;;;;;;;;;;;7363545;19;1861;-61
2022/11/17 09:53:35;;;;;;;;;;;;;;;;;;7362079;19;1270;-62
2022/11/17 09:56:03;;;;;;;;;;;;;;;;;;7365094;19;823;-64
2022/11/17 09:58:31;;;;;;;;;;;;;;;;;;7364564;19;791;-64
2022/11/17 10:01:00;;;;;;;;;;;;;;;;;;7365026;19;824;-61
2022/11/17 10:03:28;;;;;;;;;;;;;;;;;;7362190;19;1212;-62
2022/11/17 10:05:56;;;;;;;;;;;;;;;;;;7364886;19;866;-62
2022/11/17 10:08:24;;;;;;;;;;;;;;;;;;7367474;19;2052;-60
2022/11/17 10:10:52;;;;;;;;;;;;;;;;;;7367859;19;1862;-62
2022/11/17 10:13:20;;;;;;;;;;;;;;;;;;7369068;19;1754;-63
2022/11/17 10:15:48;;;;;;;;;;;;;;;;;;7370413;19;800;-62
2022/11/17 10:18:17;;;;;;;;;;;;;;;;;;7368744;19;874;-62
2022/11/17 10:20:45;;;;;;;;;;;;;;;;;;7369963;19;764;-61
2022/11/17 10:23:13;;;;;;;;;;;;;;;;;;7368999;19;1290;-62
2022/11/17 10:25:41;;;;;;;;;;;;;;;;;;7370078;19;936;-61
2022/11/17 10:28:09;;;;;;;;;;;;;;;;;;7369687;19;851;-61
2022/11/17 10:30:37;;;;;;;;;;;;;;;;;;7368052;19;1821;-61
2022/11/17 10:33:05;;;;;;;;;;;;;;;;;;7368076;19;1298;-61
2022/11/17 10:35:33;;;;;;;;;;;;;;;;;;7369377;19;811;-62
2022/11/17 10:38:02;;;;;;;;;;;;;;;;;;7373142;19;2104;-62
2022/11/17 10:40:30;;;;;;;;;;;;;;;;;;7371010;19;804;-61
2022/11/17 10:42:58;;;;;;;;;;;;;;;;;;7368791;19;1316;-60
2022/11/17 10:45:26;;;;;;;;;;;;;;;;;;7373665;19;1763;-61
2022/11/17 10:47:54;;;;;;;;;;;;;;;;;;7369131;19;862;-63
2022/11/17 10:50:22;;;;;;;;;;;;;;;;;;7370286;19;1849;-65
2022/11/17 10:52:51;;;;;;;;;;;;;;;;;;7369066;19;1301;-65
2022/11/17 10:55:19;;;;;;;;;;;;;;;;;;7370181;19;697;-63
2022/11/17 10:57:47;;;;;;;;;;;;;;;;;;7369651;19;874;-64
2022/11/17 11:00:15;;;;;;;;;;;;;;;;;;7370214;19;879;-64
2022/11/17 11:02:43;;;;;;;;;;;;;;;;;;7368106;19;1264;-64
2022/11/17 11:05:11;;;;;;;;;;;;;;;;;;7369982;19;799;-64
2022/11/17 11:07:39;;;;;;;;;;;;;;;;;;7371786;19;1772;-64
2022/11/17 11:10:07;;;;;;;;;;;;;;;;;;7368901;19;836;-64
2022/11/17 11:12:36;;;;;;;;;;;;;;;;;;7371933;19;2082;-65
2022/11/17 11:15:04;;;;;;;;;;;;;;;;;;7369422;19;875;-63
2022/11/17 11:17:32;;;;;;;;;;;;;;;;;;7369784;19;814;-69
2022/11/17 11:20:00;;;;;;;;;;;;;;;;;;7369019;19;752;-58
2022/11/17 11:22:28;;;;;;;;;;;;;;;;;;7366940;19;1345;-68
2022/11/17 11:24:57;;;;;;;;;;;;;;;;;;7369931;19;863;-67
2022/11/17 11:27:25;;;;;;;;;;;;;;;;;;7368952;19;800;-69
2022/11/17 11:29:53;;;;;;;;;;;;;;;;;;7369075;19;816;-73
2022/11/17 11:32:21;;;;;;;;;;;;;;;;;;7367947;19;1814;-69
2022/11/17 11:34:49;;;;;;;;;;;;;;;;;;7368857;19;791;-69
2022/11/17 11:37:17;;;;;;;;;;;;;;;;;;7373008;19;1608;-69
2022/11/17 11:39:45;;;;;;;;;;;;;;;;;;7369547;19;824;-70
2022/11/17 11:42:14;;;;;;;;;;;;;;;;;;7369331;19;1204;-70
2022/11/17 11:44:42;;;;;;;;;;;;;;;;;;7371272;19;866;-71
2022/11/17 11:47:10;;;;;;;;;;;;;;;;;;7374517;19;1219;-71
2022/11/17 11:49:38;;;;;;;;;;;;;;;;;;7369924;19;820;-70
2022/11/17 11:52:06;;;;;;;;;;;;;;;;;;7370002;19;1865;-67
2022/11/17 11:54:34;;;;;;;;;;;;;;;;;;7369846;19;815;-69
2022/11/17 11:57:03;;;;;;;;;;;;;;;;;;7371185;19;815;-68
2022/11/17 11:59:31;;;;;;;;;;;;;;;;;;7369511;19;795;-68
2022/11/17 12:01:59;;;;;;;;;;;;;;;;;;7372837;19;1867;-70
2022/11/17 12:04:28;;;;;;;;;;;;;;;;;;7369445;19;895;-70
2022/11/17 12:06:56;;;;;;;;;;;;;;;;;;7369813;19;953;-69
2022/11/17 12:09:24;;;;;;;;;;;;;;;;;;7368962;19;843;-67
2022/11/17 12:12:01;;;;;;;;;;;;;;;;;;7368050;19;1865;-69
2022/11/17 12:14:30;;;;;;;;;;;;;;;;;;7369063;19;867;-68
2022/11/17 12:16:58;;;;;;;;;;;;;;;;;;7371342;19;1807;-69
2022/11/17 12:19:26;;;;;;;;;;;;;;;;;;7368356;19;721;-69
2022/11/17 12:21:54;;;;;;;;;;;;;;;;;;7368435;19;1270;-70
2022/11/17 12:24:22;;;;;;;;;;;;;;;;;;7370580;19;770;-69
2022/11/17 12:26:50;;;;;;;;;;;;;;;;;;7375717;19;1824;-71
2022/11/17 12:29:18;;;;;;;;;;;;;;;;;;7372004;19;1847;-72
2022/11/17 12:31:47;;;;;;;;;;;;;;;;;;7367984;19;1825;-73
2022/11/17 12:34:15;;;;;;;;;;;;;;;;;;7366102;19;886;-73
2022/11/17 12:36:43;;;;;;;;;;;;;;;;;;7370843;19;854;-72
2022/11/17 12:39:11;;;;;;;;;;;;;;;;;;7369590;19;834;-73
2022/11/17 12:41:39;;;;;;;;;;;;;;;;;;7369664;19;1278;-71
2022/11/17 12:44:07;;;;;;;;;;;;;;;;;;7369327;19;886;-72
2022/11/17 12:46:35;;;;;;;;;;;;;;;;;;7369352;19;850;-72
2022/11/17 12:49:04;;;;;;;;;;;;;;;;;;7368482;19;842;-72
2022/11/17 12:51:32;;;;;;;;;;;;;;;;;;7368434;19;1838;-73
2022/11/17 12:54:00;;;;;;;;;;;;;;;;;;7368570;19;979;-72
2022/11/17 12:56:28;;;;;;;;;;;;;;;;;;7368192;19;821;-72
2022/11/17 12:58:57;;;;;;;;;;;;;;;;;;7367848;19;846;-70
2022/11/17 13:01:25;;;;;;;;;;;;;;;;;;7370164;19;1270;-71
2022/11/17 13:03:53;;;;;;;;;;;;;;;;;;7368925;19;807;-70
2022/11/17 13:06:21;;;;;;;;;;;;;;;;;;7368540;19;798;-71
2022/11/17 13:08:50;;;;;;;;;;;;;;;;;;7368347;19;757;-71
2022/11/17 13:11:18;;;;;;;;;;;;;;;;;;7368154;19;1842;-71
2022/11/17 13:13:46;;;;;;;;;;;;;;;;;;7367887;19;813;-71
2022/11/17 13:16:14;;;;;;;;;;;;;;;;;;7368378;19;958;-71
2022/11/17 13:18:42;;;;;;;;;;;;;;;;;;7368100;19;922;-72
2022/11/17 13:21:10;;;;;;;;;;;;;;;;;;7369005;19;772;-71
2022/11/17 13:23:39;;;;;;;;;;;;;;;;;;7365895;19;1267;-70
2022/11/17 13:26:07;;;;;;;;;;;;;;;;;;7368926;19;803;-71
2022/11/17 13:28:35;;;;;;;;;;;;;;;;;;7368449;19;822;-73
2022/11/17 13:31:03;;;;;;;;;;;;;;;;;;7369202;19;806;-71
2022/11/17 13:33:32;;;;;;;;;;;;;;;;;;7365085;19;1903;-71
2022/11/17 13:36:00;;;;;;;;;;;;;;;;;;7368747;19;830;-71
2022/11/17 13:38:28;;;;;;;;;;;;;;;;;;7372304;19;816;-71
2022/11/17 13:40:56;;;;;;;;;;;;;;;;;;7382728;19;772;-72
2022/11/17 13:43:24;;;;;;;;;;;;;;;;;;7379011;19;1278;-71
2022/11/17 13:45:52;;;;;;;;;;;;;;;;;;7384156;19;790;-72
2022/11/17 13:48:20;;;;;;;;;;;;;;;;;;7385434;19;796;-72
2022/11/17 13:50:48;;;;;;;;;;;;;;;;;;7385572;19;1418;-74
2022/11/17 13:53:17;;;;;;;;;;;;;;;;;;7382005;19;1823;-74
2022/11/17 13:55:45;;;;;;;;;;;;;;;;;;7384974;19;756;-74
2022/11/17 13:58:13;;;;;;;;;;;;;;;;;;7385971;19;803;-74
2022/11/17 14:00:41;;;;;;;;;;;;;;;;;;7383986;19;791;-73
2022/11/17 14:03:09;;;;;;;;;;;;;;;;;;7378838;19;1224;-73
2022/11/17 14:05:37;;;;;;;;;;;;;;;;;;7380501;19;835;-73
2022/11/17 14:08:05;;;;;;;;;;;;;;;;;;7379580;19;717;-73
2022/11/17 14:10:33;;;;;;;;;;;;;;;;;;7373642;19;1433;-73
2022/11/17 14:13:02;;;;;;;;;;;;;;;;;;7363981;19;1853;-73
2022/11/17 14:15:30;;;;;;;;;;;;;;;;;;7365990;19;875;-71
2022/11/17 14:17:58;;;;;;;;;;;;;;;;;;7365877;19;835;-73
2022/11/17 14:20:26;;;;;;;;;;;;;;;;;;7367146;19;811;-73
2022/11/17 14:22:54;;;;;;;;;;;;;;;;;;7364953;19;1224;-74
2022/11/17 14:25:23;;;;;;;;;;;;;;;;;;7366275;19;1824;-70
2022/11/17 14:27:51;;;;;;;;;;;;;;;;;;7369040;19;1754;-71
2022/11/17 14:30:19;;;;;;;;;;;;;;;;;;7365285;19;898;-71
2022/11/17 14:32:47;;;;;;;;;;;;;;;;;;7363649;19;1837;-73
2022/11/17 14:35:16;;;;;;;;;;;;;;;;;;7364414;19;899;-71
2022/11/17 14:37:44;;;;;;;;;;;;;;;;;;7364864;19;892;-70
2022/11/17 14:40:12;;;;;;;;;;;;;;;;;;7364729;19;1635;-70
2022/11/17 14:42:40;;;;;;;;;;;;;;;;;;7366466;19;2001;-70
2022/11/17 14:45:08;;;;;;;;;;;;;;;;;;7365972;19;816;-71
2022/11/17 14:47:37;;;;;;;;;;;;;;;;;;7364800;19;2016;-71
2022/11/17 14:50:05;;;;;;;;;;;;;;;;;;7365323;19;849;-70
2022/11/17 14:52:33;;;;;;;;;;;;;;;;;;7363369;19;1837;-69
2022/11/17 14:55:02;;;;;;;;;;;;;;;;;;7364917;19;703;-70
2022/11/17 14:57:30;;;;;;;;;;;;;;;;;;7367300;19;801;-71
2022/11/17 14:59:58;;;;;;;;;;;;;;;;;;7370671;19;870;-71
2022/11/17 15:02:26;;;;;;;;;;;;;;;;;;7370847;19;1282;-65
2022/11/17 15:04:54;;;;;;;;;;;;;;;;;;7371144;19;875;-69
2022/11/17 15:07:22;;;;;;;;;;;;;;;;;;7370521;19;947;-70
2022/11/17 15:09:51;;;;;;;;;;;;;;;;;;7369666;19;800;-69
2022/11/17 15:12:19;;;;;;;;;;;;;;;;;;7368764;19;1874;-69
2022/11/17 15:14:47;;;;;;;;;;;;;;;;;;7372473;19;2058;-68
2022/11/17 15:17:15;;;;;;;;;;;;;;;;;;7370642;19;888;-69
2022/11/17 15:19:44;;;;;;;;;;;;;;;;;;7369614;19;815;-70
2022/11/17 15:22:12;;;;;;;;;;;;;;;;;;7369470;19;1244;-70
2022/11/17 15:24:40;;;;;;;;;;;;;;;;;;7369075;19;819;-70
2022/11/17 15:27:08;;;;;;;;;;;;;;;;;;7372432;19;832;-71
2022/11/17 15:29:36;;;;;;;;;;;;;;;;;;7370249;19;803;-70
2022/11/17 15:32:04;;;;;;;;;;;;;;;;;;7369378;19;1846;-71
2022/11/17 15:34:32;;;;;;;;;;;;;;;;;;7370280;19;844;-70
2022/11/17 15:37:01;;;;;;;;;;;;;;;;;;7370651;19;811;-70
2022/11/17 15:39:29;;;;;;;;;;;;;;;;;;7369710;19;862;-71
2022/11/17 15:41:57;;;;;;;;;;;;;;;;;;7370366;19;1218;-70
2022/11/17 15:44:25;;;;;;;;;;;;;;;;;;7373974;19;1849;-70
2022/11/17 15:46:53;;;;;;;;;;;;;;;;;;7371500;19;1746;-68
2022/11/17 15:49:21;;;;;;;;;;;;;;;;;;7368914;19;845;-69
2022/11/17 15:51:49;;;;;;;;;;;;;;;;;;7367797;19;2053;-69
2022/11/17 15:54:18;;;;;;;;;;;;;;;;;;7369803;19;803;-67
2022/11/17 15:56:46;;;;;;;;;;;;;;;;;;7369642;19;875;-68
2022/11/17 15:59:14;;;;;;;;;;;;;;;;;;7368703;19;873;-68
2022/11/17 16:01:42;;;;;;;;;;;;;;;;;;7368392;19;1342;-69
2022/11/17 16:04:10;;;;;;;;;;;;;;;;;;7368704;19;757;-68
2022/11/17 16:06:39;;;;;;;;;;;;;;;;;;7369187;19;795;-67
2022/11/17 16:09:07;;;;;;;;;;;;;;;;;;7368311;19;846;-67
2022/11/17 16:11:35;;;;;;;;;;;;;;;;;;7368382;19;1334;-68
2022/11/17 16:14:04;;;;;;;;;;;;;;;;;;7369764;19;1849;-67
2022/11/17 16:16:32;;;;;;;;;;;;;;;;;;7370541;19;1822;-68
2022/11/17 16:19:00;;;;;;;;;;;;;;;;;;7367467;19;803;-69
2022/11/17 16:21:28;;;;;;;;;;;;;;;;;;7368392;19;1307;-68
2022/11/17 16:23:56;;;;;;;;;;;;;;;;;;7367114;19;802;-68
2022/11/17 16:26:24;;;;;;;;;;;;;;;;;;7368545;19;827;-68
2022/11/17 16:28:52;;;;;;;;;;;;;;;;;;7368198;19;861;-67
2022/11/17 16:31:21;;;;;;;;;;;;;;;;;;7368185;19;1353;-68
2022/11/17 16:33:49;;;;;;;;;;;;;;;;;;7366129;19;1841;-69
2022/11/17 16:36:17;;;;;;;;;;;;;;;;;;7368761;19;860;-68
2022/11/17 16:38:45;;;;;;;;;;;;;;;;;;7367980;19;846;-69
2022/11/17 16:41:13;;;;;;;;;;;;;;;;;;7367441;19;870;-68
2022/11/17 16:43:41;;;;;;;;;;;;;;;;;;7365150;19;1240;-69
2022/11/17 16:46:09;;;;;;;;;;;;;;;;;;7369072;19;1820;-68
2022/11/17 16:48:39;;;;;;;;;;;;;;;;;;7366655;19;854;-67
2022/11/17 16:51:07;;;;;;;;;;;;;;;;;;7369640;19;1795;-69
2022/11/17 16:53:35;;;;;;;;;;;;;;;;;;7365005;19;1850;-66
2022/11/17 16:56:03;;;;;;;;;;;;;;;;;;7369910;19;1860;-67
2022/11/17 16:58:31;;;;;;;;;;;;;;;;;;7367832;19;1000;-66
2022/11/17 17:01:00;;;;;;;;;;;;;;;;;;7367721;19;865;-68
2022/11/17 17:03:28;;;;;;;;;;;;;;;;;;7365246;19;1283;-68
2022/11/17 17:05:56;;;;;;;;;;;;;;;;;;7368053;19;808;-66
2022/11/17 17:08:26;;;;;;;;;;;;;;;;;;7366438;19;812;-68
2022/11/17 17:10:54;;;;;;;;;;;;;;;;;;7367680;19;763;-67
2022/11/17 17:13:22;;;;;;;;;;;;;;;;;;7367100;19;1859;-67
2022/11/17 17:15:50;;;;;;;;;;;;;;;;;;7366773;19;743;-67
2022/11/17 17:18:18;;;;;;;;;;;;;;;;;;7364810;19;787;-67
2022/11/17 17:20:47;;;;;;;;;;;;;;;;;;7364183;19;1098;-67
2022/11/17 17:23:15;;;;;;;;;;;;;;;;;;7364910;19;1410;-67
2022/11/17 17:25:43;;;;;;;;;;;;;;;;;;7366988;19;1825;-67
2022/11/17 17:28:11;;;;;;;;;;;;;;;;;;7366350;19;854;-67
2022/11/17 17:30:40;;;;;;;;;;;;;;;;;;7367030;19;796;-67
2022/11/17 17:33:08;;;;;;;;;;;;;;;;;;7364590;19;1861;-67
2022/11/17 17:35:36;;;;;;;;;;;;;;;;;;7366843;19;850;-67
2022/11/17 17:38:05;;;;;;;;;;;;;;;;;;7367315;19;1836;-67
2022/11/17 17:40:33;;;;;;;;;;;;;;;;;;7366225;19;859;-67
2022/11/17 17:43:01;;;;;;;;;;;;;;;;;;7363973;19;1859;-66